OMSJ/SHJ METAR and TAF weather

Enter ICAO airport designator
Station Type Date Time Source
OMSJ METAR 2019/04/25 10:00 UTC NOAA

OMSJ 251000Z 26014KT 9999 FEW030 26/12 Q1014


Station Type Date Time Source
OMSJ Decoded METAR 2019/04/25 10:00 UTC NOAA

Sharjah International Airport, United Arab Emirates (OMSJ) 25-20N 055-31E 33M
Apr 25, 2019 - 06:00 AM EDT / 2019.04.25 1000 UTC
Wind: from the W (260 degrees) at 16 MPH (14 KT):0
Visibility: greater than 7 mile(s):0
Sky conditions: mostly clear
Temperature: 78 F (26 C)
Dew Point: 53 F (12 C)
Relative Humidity: 41%
Pressure (altimeter): 29.94 in. Hg (1014 hPa)
ob: OMSJ 251000Z 26014KT 9999 FEW030 26/12 Q1014
cycle: 10

Station Type Date Time Source
OMSJ TAF 2019/04/25 06:03 UTC NOAA

TAF OMSJ 250455Z 2506/2612 28015KT CAVOK
BECMG 2517/2519 20005KT
BECMG 2604/2606 27014KT

Example: see airport list